createdAt,value
2022-08-11T00:03:22.462Z,19.67
2022-08-11T00:07:28.338Z,19.66
2022-08-11T00:11:36.333Z,19.67
2022-08-11T00:15:46.115Z,19.66
2022-08-11T00:20:12.584Z,19.64
2022-08-11T00:24:17.346Z,19.59
2022-08-11T00:28:31.367Z,19.54
2022-08-11T00:32:38.342Z,19.47
2022-08-11T00:36:54.543Z,19.37
2022-08-11T00:41:06.046Z,19.26
2022-08-11T00:45:15.078Z,19.19
2022-08-11T00:49:30.891Z,19.12
2022-08-11T00:53:47.299Z,19.07
2022-08-11T00:58:50.822Z,19.05
2022-08-11T01:03:33.005Z,19.03
2022-08-11T01:08:06.265Z,18.98
2022-08-11T01:12:51.814Z,18.86
2022-08-11T01:17:14.920Z,18.73
2022-08-11T01:21:49.195Z,18.58
2022-08-11T01:26:17.215Z,18.40
2022-08-11T01:31:01.673Z,18.22
2022-08-11T01:35:29.242Z,18.07
2022-08-11T01:40:06.303Z,17.97
2022-08-11T01:44:50.308Z,17.90
2022-08-11T01:50:05.974Z,17.89
2022-08-11T01:53:40.209Z,17.91
2022-08-11T01:57:51.625Z,17.95
2022-08-11T02:02:08.652Z,17.99
2022-08-11T02:06:39.204Z,18.01
2022-08-11T02:11:06.581Z,18.00
2022-08-11T02:15:22.196Z,17.98
2022-08-11T02:19:49.007Z,17.99
2022-08-11T02:24:06.766Z,18.01
2022-08-11T02:28:26.010Z,18.01
2022-08-11T02:32:52.099Z,17.99
2022-08-11T02:37:02.047Z,17.98
2022-08-11T02:41:25.965Z,17.95
2022-08-11T02:45:39.019Z,17.95
2022-08-11T02:50:06.868Z,17.99
2022-08-11T02:54:17.689Z,17.97
2022-08-11T02:58:29.882Z,17.92
2022-08-11T03:02:50.231Z,17.86
2022-08-11T03:07:02.398Z,17.81
2022-08-11T03:11:33.658Z,17.76
2022-08-11T03:16:11.127Z,17.70
2022-08-11T03:20:38.086Z,17.66
2022-08-11T03:24:54.965Z,17.62
2022-08-11T03:29:08.177Z,17.60
2022-08-11T03:33:40.211Z,17.58
2022-08-11T03:37:53.044Z,17.55
2022-08-11T03:42:10.277Z,17.52
2022-08-11T03:46:24.583Z,17.54
2022-08-11T03:50:55.149Z,17.51
2022-08-11T03:55:10.966Z,17.55
2022-08-11T03:59:40.970Z,17.56
2022-08-11T04:04:09.646Z,17.57
2022-08-11T04:08:55.456Z,17.60
2022-08-11T04:13:43.139Z,17.61
2022-08-11T04:18:32.215Z,17.62
2022-08-11T04:23:09.133Z,17.65
2022-08-11T04:27:44.523Z,17.68
2022-08-11T04:32:10.545Z,17.72
2022-08-11T04:36:56.602Z,17.75
2022-08-11T04:41:32.260Z,17.80
2022-08-11T04:45:51.128Z,17.36
2022-08-11T04:50:26.686Z,17.88
2022-08-11T04:55:06.755Z,17.92
2022-08-11T05:00:03.918Z,17.99
2022-08-11T05:04:42.769Z,18.10
2022-08-11T05:09:07.772Z,18.22
2022-08-11T05:13:39.942Z,18.34
2022-08-11T05:18:04.665Z,18.46
2022-08-11T05:22:30.317Z,18.56
2022-08-11T05:27:00.710Z,18.68
2022-08-11T05:31:27.667Z,18.79
2022-08-11T05:36:00.552Z,18.91
2022-08-11T05:40:24.307Z,19.05
2022-08-11T05:44:47.923Z,19.21
2022-08-11T05:49:12.259Z,19.36
2022-08-11T05:53:35.996Z,19.50
2022-08-11T05:57:52.078Z,19.67
2022-08-11T06:02:02.437Z,19.82
2022-08-11T06:06:11.283Z,19.97
2022-08-11T06:10:15.821Z,20.12
2022-08-11T06:14:20.216Z,20.27
2022-08-11T06:18:24.182Z,20.42
2022-08-11T06:22:29.845Z,20.58
2022-08-11T06:26:44.860Z,20.74
2022-08-11T06:30:57.741Z,20.96
2022-08-11T06:35:14.190Z,21.17
2022-08-11T06:39:28.883Z,21.42
2022-08-11T06:43:55.753Z,21.67
2022-08-11T06:48:03.601Z,21.96
2022-08-11T06:52:12.801Z,22.28
2022-08-11T07:01:29.865Z,23.11
2022-08-11T07:05:44.042Z,23.62
2022-08-11T07:10:39.698Z,24.19
2022-08-11T07:15:09.254Z,24.87
2022-08-11T07:19:33.305Z,25.50
2022-08-11T07:23:56.287Z,26.14
2022-08-11T07:28:21.422Z,26.71
2022-08-11T07:32:30.100Z,27.27
2022-08-11T07:36:35.641Z,27.74
2022-08-11T07:40:39.855Z,28.13
2022-08-11T07:44:58.098Z,28.46
2022-08-11T07:49:21.999Z,28.80
2022-08-11T07:53:26.096Z,29.07
2022-08-11T07:58:08.746Z,29.33
2022-08-11T08:02:31.005Z,29.63
2022-08-11T08:06:53.743Z,29.97
2022-08-11T08:11:16.050Z,30.25
2022-08-11T08:15:39.056Z,30.54
2022-08-11T08:19:44.896Z,30.82
2022-08-11T08:23:53.039Z,31.07
2022-08-11T08:28:02.210Z,31.30
2022-08-11T08:32:06.360Z,31.47
2022-08-11T08:36:15.847Z,31.57
2022-08-11T08:40:21.624Z,31.63
2022-08-11T08:44:44.652Z,31.64
2022-08-11T08:48:49.902Z,31.64
2022-08-11T08:53:03.774Z,31.67
2022-08-11T08:57:12.598Z,31.69
2022-08-11T09:01:18.287Z,31.61
2022-08-11T09:05:24.122Z,31.53
2022-08-11T09:09:29.583Z,31.46
2022-08-11T09:13:35.045Z,31.40
2022-08-11T09:17:41.942Z,31.37
2022-08-11T09:22:06.929Z,31.35
2022-08-11T09:26:30.286Z,31.31
2022-08-11T09:30:35.928Z,31.32
2022-08-11T09:34:41.011Z,31.33
2022-08-11T09:39:01.939Z,31.37
2022-08-11T09:43:25.798Z,31.47
2022-08-11T09:47:32.175Z,31.64
2022-08-11T09:51:36.186Z,31.80
2022-08-11T09:55:46.212Z,31.95
2022-08-11T09:59:49.803Z,32.04
2022-08-11T10:04:03.066Z,32.14
2022-08-11T10:08:08.631Z,32.23
2022-08-11T10:12:15.373Z,32.34
2022-08-11T10:16:19.368Z,32.40
2022-08-11T10:20:25.919Z,32.54
2022-08-11T10:24:46.697Z,32.68
2022-08-11T10:29:11.965Z,32.93
2022-08-11T10:33:36.847Z,33.21
2022-08-11T10:38:08.305Z,33.46
2022-08-11T10:42:47.722Z,33.60
2022-08-11T10:51:53.667Z,33.83
2022-08-11T10:56:18.204Z,33.90
2022-08-11T11:00:21.521Z,33.99
2022-08-11T11:04:28.089Z,34.06
2022-08-11T11:08:50.825Z,34.18
2022-08-11T11:13:17.529Z,34.32
2022-08-11T11:17:45.866Z,34.42
2022-08-11T11:21:53.574Z,34.48
2022-08-11T11:26:15.014Z,34.54
2022-08-11T11:30:21.234Z,34.55
2022-08-11T11:34:52.952Z,34.58
2022-08-11T11:38:59.594Z,34.64
2022-08-11T11:43:03.825Z,34.73
2022-08-11T11:47:09.510Z,34.82
2022-08-11T11:51:14.645Z,34.86
2022-08-11T11:55:18.505Z,34.92
2022-08-11T11:59:40.408Z,34.94
2022-08-11T12:03:47.404Z,34.98
2022-08-11T12:08:13.165Z,34.96
2022-08-11T12:12:34.131Z,34.98
2022-08-11T12:16:39.362Z,35.06
2022-08-11T12:20:45.682Z,35.14
2022-08-11T12:25:07.280Z,35.18
2022-08-11T12:29:13.094Z,35.25
2022-08-11T12:33:23.856Z,35.30
2022-08-11T12:37:33.597Z,35.37
2022-08-11T12:41:58.638Z,35.42
2022-08-11T12:46:07.828Z,35.43
2022-08-11T12:50:29.254Z,35.30
2022-08-11T12:54:42.248Z,35.17
2022-08-11T12:58:48.378Z,35.00
2022-08-11T13:03:11.049Z,34.87
2022-08-11T13:07:16.043Z,34.85
2022-08-11T13:11:56.380Z,34.98
2022-08-11T13:16:02.424Z,35.11
2022-08-11T13:20:09.014Z,35.23
2022-08-11T13:24:12.384Z,35.33
2022-08-11T13:28:21.888Z,35.38
2022-08-11T13:32:27.077Z,35.46
2022-08-11T13:36:30.610Z,35.58
2022-08-11T13:40:54.603Z,35.79
2022-08-11T13:45:01.747Z,35.97
2022-08-11T13:49:06.181Z,36.03
2022-08-11T13:53:10.088Z,36.09
2022-08-11T13:58:07.516Z,36.16
2022-08-11T14:02:03.591Z,36.29
2022-08-11T14:06:10.151Z,36.34
2022-08-11T14:10:17.806Z,36.39
2022-08-11T14:14:26.697Z,36.40
2022-08-11T14:18:33.751Z,36.43
2022-08-11T14:22:40.297Z,36.43
2022-08-11T14:26:44.823Z,36.46
2022-08-11T14:31:01.561Z,36.51
2022-08-11T14:35:07.709Z,36.55
2022-08-11T14:39:13.600Z,36.53
2022-08-11T14:44:12.493Z,36.50
2022-08-11T14:48:03.194Z,36.51
2022-08-11T14:52:10.921Z,36.51
2022-08-11T14:56:32.304Z,36.46
2022-08-11T15:00:36.513Z,36.46
2022-08-11T15:04:40.637Z,36.54
2022-08-11T15:08:58.250Z,36.63
2022-08-11T15:13:03.268Z,36.72
2022-08-11T15:17:10.433Z,36.80
2022-08-11T15:21:32.060Z,36.85
2022-08-11T15:25:38.022Z,36.92
2022-08-11T15:30:01.261Z,36.92
2022-08-11T15:34:24.623Z,36.89
2022-08-11T15:38:36.932Z,36.78
2022-08-11T15:43:06.557Z,36.71
2022-08-11T15:47:17.101Z,36.67
2022-08-11T15:51:25.461Z,36.59
2022-08-11T15:55:32.795Z,36.44
2022-08-11T15:59:58.597Z,36.21
2022-08-11T16:04:14.850Z,35.86
2022-08-11T16:08:23.536Z,35.51
2022-08-11T16:12:41.338Z,35.12
2022-08-11T16:16:47.644Z,34.71
2022-08-11T16:20:53.588Z,34.30
2022-08-11T16:27:01.997Z,33.91
2022-08-11T16:29:25.152Z,33.50
2022-08-11T16:33:51.235Z,33.13
2022-08-11T16:38:14.330Z,32.70
2022-08-11T16:43:08.595Z,32.31
2022-08-11T16:47:01.420Z,31.92
2022-08-11T16:51:07.695Z,31.34
2022-08-11T16:55:12.274Z,31.31
2022-08-11T16:59:38.917Z,30.80
2022-08-11T17:04:06.803Z,30.81
2022-08-11T17:08:30.280Z,30.56
2022-08-11T17:12:53.648Z,30.29
2022-08-11T17:16:58.403Z,30.04
2022-08-11T17:21:04.348Z,29.79
2022-08-11T17:25:11.836Z,29.60
2022-08-11T17:29:16.221Z,29.36
2022-08-11T17:33:38.417Z,29.15
2022-08-11T17:37:43.379Z,28.91
2022-08-11T17:42:14.502Z,28.71
2022-08-11T17:46:35.363Z,28.49
2022-08-11T17:50:40.203Z,28.26
2022-08-11T17:55:02.765Z,28.07
2022-08-11T17:59:32.437Z,27.87
2022-08-11T18:03:40.101Z,27.66
2022-08-11T18:08:03.089Z,27.45
2022-08-11T18:12:25.924Z,27.24
2022-08-11T18:16:48.757Z,27.03
2022-08-11T18:21:09.887Z,26.88
2022-08-11T18:25:34.194Z,26.65
2022-08-11T18:29:59.157Z,26.45
2022-08-11T18:34:25.052Z,26.25
2022-08-11T18:38:48.415Z,26.02
2022-08-11T18:43:12.222Z,25.81
2022-08-11T18:47:35.482Z,25.58
2022-08-11T18:52:03.049Z,25.36
2022-08-11T18:56:24.570Z,25.18
2022-08-11T19:00:47.473Z,25.00
2022-08-11T19:05:08.536Z,24.91
2022-08-11T19:09:33.305Z,24.78
2022-08-11T19:13:55.381Z,24.63
2022-08-11T19:18:17.904Z,24.51
2022-08-11T19:22:40.101Z,24.37
2022-08-11T19:27:03.205Z,24.27
2022-08-11T19:31:24.545Z,24.18
2022-08-11T19:35:46.022Z,24.05
2022-08-11T19:40:07.879Z,23.93
2022-08-11T19:44:33.218Z,23.82
2022-08-11T19:48:54.687Z,23.69
2022-08-11T19:53:16.893Z,23.56
2022-08-11T19:57:40.493Z,23.39
2022-08-11T20:02:14.314Z,23.24
2022-08-11T20:06:37.146Z,23.10
2022-08-11T20:10:59.294Z,22.95
2022-08-11T20:15:21.820Z,22.80
2022-08-11T20:19:55.406Z,22.68
2022-08-11T20:24:20.356Z,22.55
2022-08-11T20:28:41.373Z,22.41
2022-08-11T20:33:04.164Z,22.30
2022-08-11T20:37:26.641Z,22.20
2022-08-11T20:41:58.927Z,22.09
2022-08-11T20:46:22.231Z,21.99
2022-08-11T20:50:45.670Z,21.90
2022-08-11T20:55:14.816Z,21.81
2022-08-11T20:59:50.678Z,21.74
2022-08-11T21:04:17.427Z,21.65
2022-08-11T21:08:44.714Z,21.57
2022-08-11T21:13:25.131Z,21.49
2022-08-11T21:18:00.787Z,21.39
2022-08-11T21:22:32.441Z,21.30
2022-08-11T21:26:58.277Z,21.21
2022-08-11T21:31:26.405Z,21.11
2022-08-11T21:35:47.624Z,21.02
2022-08-11T21:40:14.897Z,20.92
2022-08-11T21:44:39.686Z,20.86
2022-08-11T21:49:04.131Z,20.79
2022-08-11T21:53:25.047Z,20.71
2022-08-11T21:57:48.178Z,20.64
2022-08-11T22:02:13.011Z,20.62
2022-08-11T22:06:35.329Z,20.63
2022-08-11T22:10:55.967Z,20.60
2022-08-11T22:15:17.175Z,20.59
2022-08-11T22:19:40.498Z,20.58
2022-08-11T22:24:03.908Z,20.56
2022-08-11T22:28:29.123Z,20.55
2022-08-11T22:32:50.611Z,20.54
2022-08-11T22:37:26.829Z,20.52
2022-08-11T22:41:50.682Z,20.51
2022-08-11T22:46:11.656Z,20.53
2022-08-11T22:50:34.120Z,20.43
2022-08-11T22:54:56.163Z,20.43
2022-08-11T22:59:18.946Z,20.40
2022-08-11T23:03:40.234Z,20.36
2022-08-11T23:08:01.100Z,20.31
2022-08-11T23:12:22.836Z,20.29
2022-08-11T23:16:45.477Z,20.27
2022-08-11T23:21:07.221Z,20.23
2022-08-11T23:25:28.012Z,20.18
2022-08-11T23:29:52.247Z,20.12
2022-08-11T23:35:02.431Z,20.05
2022-08-11T23:38:57.298Z,20.01
2022-08-11T23:43:19.053Z,19.96
2022-08-11T23:47:50.902Z,19.90
2022-08-11T23:52:14.475Z,19.84
2022-08-11T23:56:35.052Z,19.75
